Pacific Harmony — YJTJ9 — position and weather

sailwx.info

Track history (hours):
 
Tides and Currents Weather Stations Pressure Air Temp Water Temp Dewpoint Dewpoint Depression Visibility Wind Speed Wind Dir Waves Ship Positions

Pacific Harmony

Last reported at 2017-Dec-17 00:57 UTC. Time now 2017-Dec-18 05:04 UTC.
Position N 24°36' E 121°52'.

Length 180 m; draft 10.5 m.

Type: Cargo ship. MMSI: 577168000.

Date/timePositionNaut miles runAvg speedWind from/ knotsBaromVisibWave heightAir tempDewpointWater temp
2017-Dec-17 00:57N 24°36' E 121°52'2 3.9
2017-Dec-17 00:25N 24°35' E 121°54'3 5.1
2017-Dec-16 23:52N 24°33' E 121°56'1 0.9
2017-Dec-16 23:17N 24°33' E 121°56'0 1.5
2017-Dec-16 22:58N 24°34' E 121°56'1 1.3
2017-Dec-16 22:30N 24°34' E 121°55'1 2.0
2017-Dec-16 22:00N 24°33' E 121°54'1 1.1
2017-Dec-16 21:24N 24°33' E 121°55'1 1.8
2017-Dec-16 20:57N 24°34' E 121°55'2 4.3
2017-Dec-16 20:26N 24°35' E 121°57'510.2
2017-Dec-16 19:53N 24°37' E 122°03'4 9.9
2017-Dec-16 19:30N 24°37' E 122°07'510.9
2017-Dec-16 19:01N 24°38' E 122°13'510.1
2017-Dec-16 18:30N 24°38' E 122°18'5 9.5
2017-Dec-16 18:00N 24°41' E 122°22'510.6
2017-Dec-16 17:30N 24°45' E 122°26'611.3
2017-Dec-16 17:00N 24°50' E 122°30'611.0
2017-Dec-16 16:30N 24°54' E 122°33'510.4
2017-Dec-16 16:00N 24°58' E 122°38'510.3
2017-Dec-16 15:30N 25°02' E 122°41'510.5
2017-Dec-16 15:00N 25°06' E 122°44'611.0
2017-Dec-16 14:30N 25°11' E 122°48'611.4
2017-Dec-16 14:00N 25°15' E 122°51'611.3
2017-Dec-16 13:30N 25°20' E 122°55'  
2017-Dec-11 00:46N 41°19' E 140°12'2 8.5
2017-Dec-11 00:30N 41°20' E 140°15'5 9.0
2017-Dec-11 00:00N 41°23' E 140°19'610.9
2017-Dec-10 23:28N 41°26' E 140°26'612.1
2017-Dec-10 22:58N 41°29' E 140°32'612.2
2017-Dec-10 22:29N 41°33' E 140°39'511.2
2017-Dec-10 22:00N 41°36' E 140°45'510.9
2017-Dec-10 21:30N 41°39' E 140°51'5 9.5
2017-Dec-10 21:01N 41°39' E 140°57'5 9.3
2017-Dec-10 20:30N 41°40' E 141°03'611.0
2017-Dec-10 19:59N 41°40' E 141°11'612.2
2017-Dec-10 19:30N 41°41' E 141°19'612.6
2017-Dec-10 19:00N 41°42' E 141°27'510.8
2017-Dec-10 18:30N 41°43' E 141°34'610.4
2017-Dec-10 17:58N 41°43' E 141°42'  
Track history (hours):
 
Tides and Currents Weather Stations Pressure Air Temp Water Temp Dewpoint Dewpoint Depression Visibility Wind Speed Wind Dir Waves Ship Positions

Pacific Harmony

Last reported at 2017-Dec-17 00:57 UTC. Time now 2017-Dec-18 05:04 UTC.
Position N 24°36' E 121°52'.

Length 180 m; draft 10.5 m.

Type: Cargo ship. MMSI: 577168000.

Date/timePositionNaut miles runAvg speedWind from/ knotsBaromVisibWave heightAir tempDewpointWater temp
2017-Dec-17 00:57N 24°36' E 121°52'2 3.9
2017-Dec-17 00:25N 24°35' E 121°54'3 5.1
2017-Dec-16 23:52N 24°33' E 121°56'1 0.9
2017-Dec-16 23:17N 24°33' E 121°56'0 1.5
2017-Dec-16 22:58N 24°34' E 121°56'1 1.3
2017-Dec-16 22:30N 24°34' E 121°55'1 2.0
2017-Dec-16 22:00N 24°33' E 121°54'1 1.1
2017-Dec-16 21:24N 24°33' E 121°55'1 1.8
2017-Dec-16 20:57N 24°34' E 121°55'2 4.3
2017-Dec-16 20:26N 24°35' E 121°57'510.2
2017-Dec-16 19:53N 24°37' E 122°03'4 9.9
2017-Dec-16 19:30N 24°37' E 122°07'510.9
2017-Dec-16 19:01N 24°38' E 122°13'510.1
2017-Dec-16 18:30N 24°38' E 122°18'5 9.5
2017-Dec-16 18:00N 24°41' E 122°22'510.6
2017-Dec-16 17:30N 24°45' E 122°26'611.3
2017-Dec-16 17:00N 24°50' E 122°30'611.0
2017-Dec-16 16:30N 24°54' E 122°33'510.4
2017-Dec-16 16:00N 24°58' E 122°38'510.3
2017-Dec-16 15:30N 25°02' E 122°41'510.5
2017-Dec-16 15:00N 25°06' E 122°44'611.0
2017-Dec-16 14:30N 25°11' E 122°48'611.4
2017-Dec-16 14:00N 25°15' E 122°51'611.3
2017-Dec-16 13:30N 25°20' E 122°55'  
2017-Dec-11 00:46N 41°19' E 140°12'2 8.5
2017-Dec-11 00:30N 41°20' E 140°15'5 9.0
2017-Dec-11 00:00N 41°23' E 140°19'610.9
2017-Dec-10 23:28N 41°26' E 140°26'612.1
2017-Dec-10 22:58N 41°29' E 140°32'612.2
2017-Dec-10 22:29N 41°33' E 140°39'511.2
2017-Dec-10 22:00N 41°36' E 140°45'510.9
2017-Dec-10 21:30N 41°39' E 140°51'5 9.5
2017-Dec-10 21:01N 41°39' E 140°57'5 9.3
2017-Dec-10 20:30N 41°40' E 141°03'611.0
2017-Dec-10 19:59N 41°40' E 141°11'612.2
2017-Dec-10 19:30N 41°41' E 141°19'612.6
2017-Dec-10 19:00N 41°42' E 141°27'510.8
2017-Dec-10 18:30N 41°43' E 141°34'610.4
2017-Dec-10 17:58N 41°43' E 141°42'  

Dump ship's entire track history